createdAt,value
2017-12-03T00:02:19.627Z,13.90
2017-12-03T00:04:49.360Z,13.73
2017-12-03T00:07:18.797Z,13.10
2017-12-03T00:09:48.196Z,13.43
2017-12-03T00:12:17.573Z,11.57
2017-12-03T00:14:46.573Z,14.17
2017-12-03T00:17:15.556Z,11.80
2017-12-03T00:19:45.331Z,12.13
2017-12-03T00:22:14.465Z,12.13
2017-12-03T00:24:44.213Z,12.20
2017-12-03T00:27:14.431Z,10.87
2017-12-03T00:29:43.436Z,13.63
2017-12-03T00:32:12.425Z,13.40
2017-12-03T00:34:41.427Z,11.97
2017-12-03T00:37:10.417Z,13.37
2017-12-03T00:39:40.159Z,13.80
2017-12-03T00:42:09.539Z,13.90
2017-12-03T00:44:39.286Z,13.77
2017-12-03T00:47:08.694Z,13.90
2017-12-03T00:49:38.483Z,11.77
2017-12-03T00:52:07.469Z,12.60
2017-12-03T00:54:37.265Z,15.43
2017-12-03T00:57:06.267Z,14.23
2017-12-03T00:59:36.759Z,15.70
2017-12-03T01:02:05.781Z,14.83
2017-12-03T01:04:36.496Z,14.57
2017-12-03T01:07:05.629Z,16.37
2017-12-03T01:09:35.364Z,16.47
2017-12-03T01:12:04.446Z,16.67
2017-12-03T01:14:35.968Z,14.27
2017-12-03T01:17:04.927Z,15.83
2017-12-03T01:19:35.850Z,15.50
2017-12-03T01:22:05.213Z,15.33
2017-12-03T01:24:34.985Z,16.23
2017-12-03T01:27:03.960Z,17.67
2017-12-03T01:29:33.739Z,16.60
2017-12-03T01:32:03.464Z,17.57
2017-12-03T01:34:32.479Z,20.30
2017-12-03T01:37:01.460Z,17.73
2017-12-03T01:39:31.247Z,18.70
2017-12-03T01:42:00.631Z,16.60
2017-12-03T01:44:31.138Z,16.93
2017-12-03T01:47:00.270Z,16.80
2017-12-03T01:49:30.018Z,18.43
2017-12-03T01:51:59.979Z,18.50
2017-12-03T01:54:29.708Z,19.20
2017-12-03T01:56:59.173Z,16.70
2017-12-03T01:59:28.554Z,21.50
2017-12-03T02:01:57.613Z,17.97
2017-12-03T02:04:27.595Z,19.00
2017-12-03T02:06:56.569Z,17.17
2017-12-03T02:09:25.858Z,18.40
2017-12-03T02:11:56.004Z,19.33
2017-12-03T02:14:25.380Z,20.63
2017-12-03T02:16:54.382Z,18.57
2017-12-03T02:19:23.378Z,19.63
2017-12-03T02:21:52.417Z,21.97
2017-12-03T02:24:21.811Z,19.00
2017-12-03T02:26:51.546Z,20.40
2017-12-03T02:29:20.529Z,22.03
2017-12-03T02:31:49.505Z,18.57
2017-12-03T02:34:19.243Z,21.43
2017-12-03T02:36:48.633Z,19.10
2017-12-03T02:39:18.392Z,23.20
2017-12-03T02:41:47.414Z,20.10
2017-12-03T02:44:17.153Z,21.17
2017-12-03T02:46:46.110Z,20.17
2017-12-03T02:49:15.114Z,23.00
2017-12-03T02:51:44.865Z,21.57
2017-12-03T02:54:13.912Z,21.10
2017-12-03T02:56:43.639Z,22.17
2017-12-03T02:59:13.435Z,22.10
2017-12-03T03:01:43.220Z,22.50
2017-12-03T03:04:12.625Z,22.30
2017-12-03T03:06:43.140Z,22.23
2017-12-03T03:09:12.885Z,23.20
2017-12-03T03:11:42.673Z,22.60
2017-12-03T03:14:11.707Z,23.73
2017-12-03T03:16:41.673Z,23.80
2017-12-03T03:19:10.666Z,24.30
2017-12-03T03:21:39.666Z,24.77
2017-12-03T03:24:09.412Z,21.27
2017-12-03T03:26:39.189Z,25.57
2017-12-03T03:29:09.764Z,22.97
2017-12-03T03:31:38.727Z,23.90
2017-12-03T03:34:07.849Z,23.80
2017-12-03T03:36:37.791Z,26.13
2017-12-03T03:39:06.797Z,25.67
2017-12-03T03:41:35.806Z,27.43
2017-12-03T03:44:04.770Z,28.97
2017-12-03T03:46:33.804Z,26.50
2017-12-03T03:49:03.575Z,27.47
2017-12-03T03:51:32.547Z,25.63
2017-12-03T03:54:01.549Z,23.63
2017-12-03T03:56:30.541Z,23.63
2017-12-03T03:58:59.564Z,26.40
2017-12-03T04:01:28.508Z,27.30
2017-12-03T04:03:57.516Z,26.57
2017-12-03T04:06:27.334Z,26.17
2017-12-03T04:08:57.080Z,28.50
2017-12-03T04:11:26.071Z,25.10
2017-12-03T04:13:55.095Z,24.17
2017-12-03T04:16:24.476Z,26.50
2017-12-03T04:18:53.869Z,25.20
2017-12-03T04:21:22.854Z,27.50
2017-12-03T04:23:52.630Z,24.67
2017-12-03T04:26:21.611Z,24.30
2017-12-03T04:28:50.715Z,26.67
2017-12-03T04:31:20.475Z,25.47
2017-12-03T04:33:49.468Z,28.10
2017-12-03T04:36:18.461Z,25.30
2017-12-03T04:38:49.013Z,26.57
2017-12-03T04:41:18.785Z,24.43
2017-12-03T04:43:48.571Z,22.97
2017-12-03T04:46:17.549Z,25.10
2017-12-03T04:48:47.288Z,25.23
2017-12-03T04:51:16.294Z,22.10
2017-12-03T04:53:45.270Z,26.07
2017-12-03T04:56:14.639Z,25.00
2017-12-03T04:58:43.753Z,25.97
2017-12-03T05:01:12.723Z,25.20
2017-12-03T05:03:41.690Z,23.23
2017-12-03T05:06:11.504Z,23.23
2017-12-03T05:08:41.217Z,25.20
2017-12-03T05:11:10.620Z,24.80
2017-12-03T05:13:40.333Z,22.60
2017-12-03T05:16:10.107Z,24.40
2017-12-03T05:18:39.484Z,25.77
2017-12-03T05:21:08.463Z,23.13
2017-12-03T05:23:37.471Z,24.40
2017-12-03T05:26:07.564Z,27.23
2017-12-03T05:28:36.556Z,24.30
2017-12-03T05:31:05.498Z,26.00
2017-12-03T05:33:34.584Z,23.20
2017-12-03T05:36:03.593Z,21.53
2017-12-03T05:38:32.617Z,22.10
2017-12-03T05:41:01.604Z,22.17
2017-12-03T05:43:30.748Z,23.53
2017-12-03T05:45:59.704Z,22.70
2017-12-03T05:48:28.667Z,23.63
2017-12-03T05:50:57.683Z,25.97
2017-12-03T05:53:28.139Z,23.13
2017-12-03T05:55:57.560Z,22.40
2017-12-03T05:58:26.549Z,22.50
2017-12-03T06:00:56.298Z,22.13
2017-12-03T06:03:25.302Z,23.43
2017-12-03T06:05:55.177Z,22.37
2017-12-03T06:08:24.540Z,19.93
2017-12-03T06:10:53.514Z,22.00
2017-12-03T06:13:23.273Z,22.97
2017-12-03T06:15:52.695Z,26.80
2017-12-03T06:18:21.663Z,22.53
2017-12-03T06:20:51.431Z,23.33
2017-12-03T06:23:21.204Z,21.70
2017-12-03T06:25:50.625Z,22.37
2017-12-03T06:28:19.691Z,22.83
2017-12-03T06:30:49.019Z,23.30
2017-12-03T06:33:18.141Z,22.77
2017-12-03T06:35:47.484Z,24.10
2017-12-03T06:38:17.715Z,22.10
2017-12-03T06:40:46.676Z,23.37
2017-12-03T06:43:15.796Z,22.90
2017-12-03T06:45:44.850Z,21.20
2017-12-03T06:48:13.823Z,22.77
2017-12-03T06:50:43.576Z,21.63
2017-12-03T06:53:12.598Z,23.70
2017-12-03T06:55:41.564Z,22.30
2017-12-03T06:58:10.576Z,21.50
2017-12-03T07:00:39.548Z,23.50
2017-12-03T07:03:09.049Z,23.23
2017-12-03T07:05:39.164Z,22.53
2017-12-03T07:08:09.292Z,23.43
2017-12-03T07:10:38.669Z,22.73
2017-12-03T07:13:07.672Z,23.30
2017-12-03T07:15:37.425Z,23.93
2017-12-03T07:18:06.469Z,23.63
2017-12-03T07:20:35.441Z,24.90
2017-12-03T07:23:05.250Z,23.60
2017-12-03T07:25:34.645Z,22.50
2017-12-03T07:28:04.363Z,20.80
2017-12-03T07:30:33.804Z,22.77
2017-12-03T07:33:02.756Z,20.13
2017-12-03T07:35:31.772Z,25.40
2017-12-03T07:38:01.542Z,23.23
2017-12-03T07:40:30.509Z,23.50
2017-12-03T07:42:59.484Z,21.83
2017-12-03T07:45:29.265Z,21.83
2017-12-03T07:47:58.286Z,22.03
2017-12-03T07:50:27.655Z,22.13
2017-12-03T07:52:57.426Z,22.60
2017-12-03T07:55:26.406Z,22.90
2017-12-03T07:57:56.130Z,24.10
2017-12-03T08:00:25.531Z,23.17
2017-12-03T08:02:54.573Z,20.60
2017-12-03T08:05:23.953Z,21.83
2017-12-03T08:07:53.728Z,19.77
2017-12-03T08:10:24.213Z,20.17
2017-12-03T08:12:53.966Z,20.83
2017-12-03T08:15:23.728Z,21.40
2017-12-03T08:17:52.745Z,20.70
2017-12-03T08:20:21.760Z,21.60
2017-12-03T08:22:52.346Z,18.97
2017-12-03T08:25:21.748Z,20.77
2017-12-03T08:27:51.765Z,21.90
2017-12-03T08:30:21.519Z,23.27
2017-12-03T08:32:50.490Z,23.93
2017-12-03T08:35:19.876Z,23.57
2017-12-03T08:37:48.909Z,24.00
2017-12-03T08:40:19.197Z,24.10
2017-12-03T08:42:48.596Z,24.30
2017-12-03T08:45:17.620Z,22.47
2017-12-03T08:47:46.721Z,25.50
2017-12-03T08:50:15.717Z,24.90
2017-12-03T08:52:44.698Z,24.20
2017-12-03T08:55:14.450Z,23.93
2017-12-03T08:57:44.226Z,27.90
2017-12-03T09:00:13.601Z,23.67
2017-12-03T09:02:42.614Z,24.23
2017-12-03T09:05:12.347Z,25.70
2017-12-03T09:07:41.745Z,25.03
2017-12-03T09:10:11.681Z,27.40
2017-12-03T09:12:40.630Z,24.97
2017-12-03T09:15:09.619Z,24.47
2017-12-03T09:17:39.449Z,25.20
2017-12-03T09:20:08.693Z,26.70
2017-12-03T09:22:37.678Z,23.40
2017-12-03T09:25:07.056Z,23.83
2017-12-03T09:27:36.072Z,23.40
2017-12-03T09:30:05.175Z,26.43
2017-12-03T09:32:34.168Z,24.77
2017-12-03T09:35:03.559Z,25.43
2017-12-03T09:37:32.916Z,23.80
2017-12-03T09:40:03.442Z,24.73
2017-12-03T09:42:32.812Z,25.17
2017-12-03T09:45:01.812Z,27.03
2017-12-03T09:47:30.884Z,24.00
2017-12-03T09:50:00.640Z,22.47
2017-12-03T09:52:29.608Z,26.27
2017-12-03T09:54:58.755Z,22.37
2017-12-03T09:57:28.117Z,23.90
2017-12-03T09:59:57.270Z,24.53
2017-12-03T10:02:27.605Z,27.53
2017-12-03T10:04:56.588Z,22.97
2017-12-03T10:07:25.875Z,23.40
2017-12-03T10:09:55.196Z,23.20
2017-12-03T10:12:24.327Z,24.57
2017-12-03T10:14:53.372Z,24.40
2017-12-03T10:17:22.732Z,22.90
2017-12-03T10:19:52.489Z,23.20
2017-12-03T10:22:21.446Z,22.23
2017-12-03T10:24:50.428Z,21.87
2017-12-03T10:27:19.805Z,24.03
2017-12-03T10:29:48.799Z,20.97
2017-12-03T10:32:18.584Z,21.37
2017-12-03T10:34:47.594Z,22.27
2017-12-03T10:37:16.636Z,22.83
2017-12-03T10:39:45.579Z,23.47
2017-12-03T10:42:14.567Z,22.60
2017-12-03T10:44:43.629Z,24.40
2017-12-03T10:47:13.407Z,21.07
2017-12-03T10:49:42.384Z,23.40
2017-12-03T10:52:11.356Z,23.33
2017-12-03T10:54:40.403Z,24.37
2017-12-03T10:57:10.076Z,24.30
2017-12-03T10:59:39.755Z,23.50
2017-12-03T11:02:09.828Z,23.20
2017-12-03T11:04:39.216Z,22.90
2017-12-03T11:07:08.617Z,22.53
2017-12-03T11:09:38.374Z,22.30
2017-12-03T11:12:08.141Z,23.47
2017-12-03T11:14:37.935Z,23.83
2017-12-03T11:17:07.377Z,23.00
2017-12-03T11:19:36.393Z,25.67
2017-12-03T11:22:06.197Z,24.03
2017-12-03T11:24:35.701Z,24.67
2017-12-03T11:27:05.816Z,24.60
2017-12-03T11:29:35.609Z,24.17
2017-12-03T11:32:04.584Z,25.37
2017-12-03T11:34:33.889Z,25.70
2017-12-03T11:37:04.138Z,23.27
2017-12-03T11:39:34.031Z,23.07
2017-12-03T11:42:03.799Z,26.40
2017-12-03T11:44:33.663Z,22.77
2017-12-03T11:47:02.774Z,23.37
2017-12-03T11:49:32.142Z,23.97
2017-12-03T11:52:01.543Z,28.10
2017-12-03T11:54:31.388Z,28.30
2017-12-03T11:57:00.381Z,28.52
2017-12-03T11:59:30.335Z,28.33
2017-12-03T12:01:59.692Z,34.60
2017-12-03T12:04:29.120Z,26.13
2017-12-03T12:06:58.804Z,27.70
2017-12-03T12:09:28.176Z,33.05
2017-12-03T12:11:57.261Z,32.35
2017-12-03T12:14:26.667Z,27.27
2017-12-03T12:16:55.760Z,24.77
2017-12-03T12:19:25.272Z,24.80
2017-12-03T12:21:54.320Z,25.47
2017-12-03T12:24:23.716Z,26.03
2017-12-03T12:26:53.217Z,25.90
2017-12-03T12:29:23.026Z,27.57
2017-12-03T12:31:52.816Z,25.23
2017-12-03T12:34:21.808Z,22.63
2017-12-03T12:36:51.694Z,25.27
2017-12-03T12:39:20.922Z,26.63
2017-12-03T12:41:50.301Z,25.20
2017-12-03T12:44:20.001Z,25.90
2017-12-03T12:46:49.734Z,25.97
2017-12-03T12:49:18.746Z,24.13
2017-12-03T12:51:48.584Z,24.10
2017-12-03T12:54:17.970Z,26.70
2017-12-03T12:56:47.366Z,25.83
2017-12-03T12:59:16.762Z,24.00
2017-12-03T13:01:45.772Z,24.13
2017-12-03T13:04:14.827Z,23.70
2017-12-03T13:06:44.616Z,25.47
2017-12-03T13:09:13.651Z,22.50
2017-12-03T13:11:43.093Z,24.30
2017-12-03T13:14:12.972Z,23.43
2017-12-03T13:16:42.004Z,24.20
2017-12-03T13:19:11.386Z,23.93
2017-12-03T13:21:40.452Z,24.80
2017-12-03T13:24:09.840Z,25.10
2017-12-03T13:26:39.587Z,24.97
2017-12-03T13:29:09.120Z,25.87
2017-12-03T13:31:38.525Z,25.87
2017-12-03T13:34:07.955Z,26.80
2017-12-03T13:36:36.931Z,26.70
2017-12-03T13:39:06.756Z,25.23
2017-12-03T13:41:36.535Z,23.60
2017-12-03T13:44:05.593Z,24.33
2017-12-03T13:46:35.443Z,22.73
2017-12-03T13:49:04.448Z,23.97
2017-12-03T13:51:33.455Z,23.93
2017-12-03T13:54:02.947Z,23.33
2017-12-03T13:56:32.824Z,20.13
2017-12-03T13:59:01.934Z,21.80
2017-12-03T14:01:31.537Z,21.13
2017-12-03T14:04:00.840Z,19.70
2017-12-03T14:06:29.886Z,21.40
2017-12-03T14:08:58.888Z,21.00
2017-12-03T14:11:27.978Z,21.70
2017-12-03T14:13:57.372Z,19.80
2017-12-03T14:16:26.425Z,21.40
2017-12-03T14:18:55.808Z,21.70
2017-12-03T14:21:24.902Z,22.03
2017-12-03T14:23:54.851Z,24.07
2017-12-03T14:26:24.274Z,19.77
2017-12-03T14:28:54.187Z,21.77
2017-12-03T14:31:23.165Z,38.93
2017-12-03T14:33:52.579Z,43.30
2017-12-03T14:36:21.650Z,23.20
2017-12-03T14:38:50.684Z,23.67
2017-12-03T14:41:19.784Z,27.37
2017-12-03T14:43:49.544Z,23.90
2017-12-03T14:46:18.539Z,26.87
2017-12-03T14:48:47.600Z,23.53
2017-12-03T14:51:16.637Z,25.13
2017-12-03T14:53:45.684Z,28.10
2017-12-03T14:56:15.430Z,31.87
2017-12-03T14:58:44.974Z,26.17
2017-12-03T15:01:14.749Z,25.60
2017-12-03T15:03:44.507Z,32.33
2017-12-03T15:06:13.924Z,25.03
2017-12-03T15:08:43.685Z,25.23
2017-12-03T15:11:12.745Z,27.20
2017-12-03T15:13:42.509Z,23.47
2017-12-03T15:16:11.509Z,29.07
2017-12-03T15:18:40.600Z,23.30
2017-12-03T15:21:09.612Z,24.73
2017-12-03T15:23:39.368Z,22.87
2017-12-03T15:26:08.916Z,26.17
2017-12-03T15:28:38.664Z,24.90
2017-12-03T15:31:07.799Z,24.50
2017-12-03T15:33:37.266Z,25.90
2017-12-03T15:36:06.278Z,25.30
2017-12-03T15:38:35.693Z,22.23
2017-12-03T15:41:05.506Z,23.20
2017-12-03T15:43:34.520Z,25.50
2017-12-03T15:46:03.543Z,22.77
2017-12-03T15:48:33.443Z,23.17
2017-12-03T15:51:03.255Z,21.37
2017-12-03T15:53:32.998Z,23.77
2017-12-03T15:56:02.527Z,22.30
2017-12-03T15:58:31.604Z,26.80
2017-12-03T16:01:00.908Z,22.17
2017-12-03T16:03:29.911Z,23.47
2017-12-03T16:05:59.289Z,22.93
2017-12-03T16:08:29.072Z,24.20
2017-12-03T16:10:58.833Z,23.17
2017-12-03T16:13:27.835Z,22.67
2017-12-03T16:15:57.596Z,23.80
2017-12-03T16:18:27.057Z,23.57
2017-12-03T16:20:56.037Z,25.70
2017-12-03T16:23:25.397Z,27.87
2017-12-03T16:25:54.431Z,24.90
2017-12-03T16:28:24.180Z,26.50
2017-12-03T16:30:53.585Z,30.42
2017-12-03T16:33:22.554Z,27.10
2017-12-03T16:35:51.569Z,25.13
2017-12-03T16:38:20.987Z,25.70
2017-12-03T16:40:50.805Z,25.60
2017-12-03T16:43:19.859Z,21.83
2017-12-03T16:45:48.962Z,23.37
2017-12-03T16:48:18.738Z,26.20
2017-12-03T16:50:47.793Z,25.83
2017-12-03T16:53:16.801Z,26.70
2017-12-03T16:55:45.916Z,25.57
2017-12-03T16:58:15.656Z,24.13
2017-12-03T17:00:44.659Z,23.83
2017-12-03T17:03:13.723Z,23.80
2017-12-03T17:05:42.754Z,53.50
2017-12-03T17:08:12.530Z,30.77
2017-12-03T17:10:41.550Z,30.83
2017-12-03T17:13:10.594Z,28.90
2017-12-03T17:15:39.612Z,23.77
2017-12-03T17:18:08.642Z,22.90
2017-12-03T17:20:38.455Z,20.40
2017-12-03T17:23:07.435Z,21.73
2017-12-03T17:25:36.426Z,20.67
2017-12-03T17:28:05.537Z,20.60
2017-12-03T17:30:35.525Z,18.97
2017-12-03T17:33:04.552Z,20.10
2017-12-03T17:35:33.591Z,15.90
2017-12-03T17:38:03.131Z,17.33
2017-12-03T17:40:32.993Z,16.77
2017-12-03T17:43:02.861Z,18.70
2017-12-03T17:45:32.634Z,18.40
2017-12-03T17:48:02.408Z,19.20
2017-12-03T17:50:31.839Z,21.70
2017-12-03T17:53:01.067Z,18.50
2017-12-03T17:55:30.106Z,17.93
2017-12-03T17:57:59.122Z,16.60
2017-12-03T18:00:28.582Z,19.47
2017-12-03T18:02:58.352Z,17.23
2017-12-03T18:05:27.825Z,17.33
2017-12-03T18:07:57.209Z,16.60
2017-12-03T18:10:26.661Z,20.00
2017-12-03T18:12:55.727Z,19.60
2017-12-03T18:15:25.148Z,18.23
2017-12-03T18:17:54.187Z,21.57
2017-12-03T18:20:24.091Z,20.50
2017-12-03T18:22:53.924Z,19.50
2017-12-03T18:25:23.749Z,14.67
2017-12-03T18:27:53.159Z,14.23
2017-12-03T18:30:22.585Z,15.37
2017-12-03T18:32:52.532Z,13.73
2017-12-03T18:35:21.615Z,14.30
2017-12-03T18:37:51.031Z,14.63
2017-12-03T18:40:20.045Z,11.80
2017-12-03T18:42:49.493Z,13.57
2017-12-03T18:45:18.898Z,12.63
2017-12-03T18:47:48.015Z,16.60
2017-12-03T18:50:17.418Z,14.13
2017-12-03T18:52:47.292Z,10.90
2017-12-03T18:55:17.594Z,10.77
2017-12-03T18:57:47.361Z,9.10
2017-12-03T19:00:16.955Z,7.60
2017-12-03T19:02:46.743Z,8.47
2017-12-03T19:05:16.161Z,8.57
2017-12-03T19:07:45.209Z,8.10
2017-12-03T19:10:15.090Z,7.90
2017-12-03T19:12:44.117Z,7.80
2017-12-03T19:15:13.574Z,7.03
2017-12-03T19:17:42.640Z,6.60
2017-12-03T19:20:11.682Z,8.30
2017-12-03T19:22:41.443Z,6.87
2017-12-03T19:25:11.163Z,7.20
2017-12-03T19:27:41.164Z,6.00
2017-12-03T19:30:10.244Z,6.37
2017-12-03T19:32:40.246Z,6.27
2017-12-03T19:35:09.712Z,6.23
2017-12-03T19:37:39.535Z,7.30
2017-12-03T19:40:08.548Z,4.97
2017-12-03T19:42:37.596Z,7.00
2017-12-03T19:45:07.391Z,5.47
2017-12-03T19:47:36.473Z,5.90
2017-12-03T19:50:05.484Z,5.40
2017-12-03T19:52:34.506Z,6.50
2017-12-03T19:55:04.331Z,5.00
2017-12-03T19:57:34.151Z,5.50
2017-12-03T20:00:03.173Z,4.30
2017-12-03T20:02:33.159Z,7.80
2017-12-03T20:05:02.666Z,6.07
2017-12-03T20:07:31.967Z,5.47
2017-12-03T20:10:03.008Z,5.40
2017-12-03T20:12:32.789Z,5.20
2017-12-03T20:15:02.655Z,4.07
2017-12-03T20:17:33.350Z,4.00
2017-12-03T20:20:03.920Z,5.33
2017-12-03T20:22:33.957Z,6.37
2017-12-03T20:25:03.355Z,5.40
2017-12-03T20:27:32.846Z,5.10
2017-12-03T20:30:02.675Z,5.43
2017-12-03T20:32:32.142Z,4.40
2017-12-03T20:35:01.575Z,4.77
2017-12-03T20:37:30.588Z,4.10
2017-12-03T20:39:59.640Z,4.40
2017-12-03T20:42:29.465Z,4.37
2017-12-03T20:44:58.486Z,4.10
2017-12-03T20:47:27.956Z,4.13
2017-12-03T20:49:57.737Z,4.17
2017-12-03T20:52:27.522Z,5.07
2017-12-03T20:54:56.852Z,4.65
2017-12-03T20:57:26.659Z,4.23
2017-12-03T20:59:57.132Z,5.80
2017-12-03T21:02:26.315Z,4.60
2017-12-03T21:04:55.842Z,4.87
2017-12-03T21:07:24.914Z,4.97
2017-12-03T21:09:54.851Z,4.87
2017-12-03T21:12:23.856Z,5.37
2017-12-03T21:14:52.957Z,5.87
2017-12-03T21:17:22.758Z,4.30
2017-12-03T21:22:13.663Z,3.87
2017-12-03T21:24:42.699Z,4.97
2017-12-03T21:27:11.751Z,4.63
2017-12-03T21:29:41.593Z,5.50
2017-12-03T21:32:11.475Z,5.70
2017-12-03T21:34:40.481Z,4.40
2017-12-03T21:37:09.508Z,5.37
2017-12-03T21:39:38.592Z,4.50
2017-12-03T21:42:08.344Z,6.17
2017-12-03T21:44:39.128Z,5.43
2017-12-03T21:47:08.880Z,6.23
2017-12-03T21:49:37.951Z,5.40
2017-12-03T21:52:07.382Z,5.50
2017-12-03T21:54:36.340Z,5.00
2017-12-03T21:57:05.570Z,5.50
2017-12-03T21:59:35.753Z,4.63
2017-12-03T22:02:04.975Z,4.80
2017-12-03T22:04:34.732Z,5.43
2017-12-03T22:07:03.822Z,5.23
2017-12-03T22:09:32.856Z,4.37
2017-12-03T22:12:01.826Z,4.77
2017-12-03T22:14:31.312Z,4.90
2017-12-03T22:17:00.313Z,4.30
2017-12-03T22:19:30.113Z,4.93
2017-12-03T22:21:59.531Z,5.90
2017-12-03T22:24:28.887Z,9.80
2017-12-03T22:26:58.736Z,5.90
2017-12-03T22:29:27.834Z,5.20
2017-12-03T22:31:56.854Z,5.10
2017-12-03T22:34:25.826Z,3.97
2017-12-03T22:36:54.841Z,4.73
2017-12-03T22:39:23.823Z,4.23
2017-12-03T22:41:52.808Z,4.37
2017-12-03T22:44:21.864Z,4.50
2017-12-03T22:46:51.285Z,4.67
2017-12-03T22:49:20.326Z,4.90
2017-12-03T22:51:49.739Z,4.40
2017-12-03T22:54:19.518Z,4.43
2017-12-03T22:56:48.529Z,5.60
2017-12-03T22:59:18.377Z,3.47
2017-12-03T23:01:48.559Z,4.83
2017-12-03T23:04:17.567Z,4.60
2017-12-03T23:06:47.316Z,4.13
2017-12-03T23:09:16.728Z,4.27
2017-12-03T23:11:45.806Z,4.87
2017-12-03T23:14:14.973Z,6.00
2017-12-03T23:16:44.716Z,4.80
2017-12-03T23:19:13.710Z,4.13
2017-12-03T23:21:42.723Z,4.30
2017-12-03T23:24:12.845Z,3.20
2017-12-03T23:26:42.593Z,4.67
2017-12-03T23:29:12.409Z,3.97
2017-12-03T23:31:41.361Z,4.60
2017-12-03T23:34:10.406Z,3.47
2017-12-03T23:36:39.397Z,3.87
2017-12-03T23:39:08.815Z,3.53
2017-12-03T23:41:38.053Z,3.00
2017-12-03T23:44:07.801Z,3.67
2017-12-03T23:46:37.192Z,3.10
2017-12-03T23:49:06.600Z,3.37
2017-12-03T23:51:35.926Z,3.50
2017-12-03T23:54:04.998Z,4.47
2017-12-03T23:56:33.947Z,4.13
2017-12-03T23:59:03.743Z,3.50
